X  Luk Metar data     LGRX Patras Araxos Agamemnon Airport
Temperatur
4°C Temperatur
4°C Duggpunkt
100% Fugtighed



Vind
0 KM/T
0 MPT
0 M/S
0 KNOB



Stille
N
Nuværende forhold

Delvis skyet Delvis skyet
Tryk 1011.92 (hPa) - 29.88 (inHg)
Sigt 6.2 (mil) - 10 (km)
Lufthavn
Lufthavnskode LGRX

Lokation: Patras Araxos Agamemnon Airport
Afstand: 108 (km)

Metar:
LGRX 042350Z 00000KT 9999 FEW020 04/04 Q1012 RMK FEW080 BLU

Tid: 05-02-2023 01:50 EET